createdAt,value
2022-11-20T00:01:41.000Z,5.23
2022-11-20T00:04:12.104Z,6.17
2022-11-20T00:06:41.983Z,5.33
2022-11-20T00:09:12.886Z,6.33
2022-11-20T00:11:41.832Z,6.13
2022-11-20T00:14:12.609Z,5.33
2022-11-20T00:16:41.115Z,5.83
2022-11-20T00:19:09.596Z,6.73
2022-11-20T00:21:38.083Z,5.53
2022-11-20T00:24:11.048Z,6.03
2022-11-20T00:26:48.107Z,5.57
2022-11-20T00:29:16.755Z,6.93
2022-11-20T00:31:47.864Z,5.37
2022-11-20T00:34:17.127Z,5.63
2022-11-20T00:36:47.575Z,6.23
2022-11-20T00:39:35.912Z,5.63
2022-11-20T00:42:06.654Z,5.50
2022-11-20T00:44:41.057Z,6.13
2022-11-20T00:47:14.822Z,5.30
2022-11-20T00:49:43.608Z,7.70
2022-11-20T00:52:23.871Z,5.03
2022-11-20T00:55:05.027Z,4.77
2022-11-20T00:57:34.497Z,4.63
2022-11-20T01:00:06.629Z,4.60
2022-11-20T01:02:35.090Z,6.10
2022-11-20T01:05:06.571Z,5.40
2022-11-20T01:07:46.725Z,4.33
2022-11-20T01:10:17.347Z,3.47
2022-11-20T01:13:08.370Z,5.00
2022-11-20T01:15:37.715Z,4.83
2022-11-20T01:18:06.861Z,6.93
2022-11-20T01:20:37.771Z,4.13
2022-11-20T01:23:06.892Z,5.30
2022-11-20T01:25:37.132Z,6.63
2022-11-20T01:28:05.856Z,7.23
2022-11-20T01:30:35.041Z,5.23
2022-11-20T01:33:03.538Z,5.27
2022-11-20T01:35:31.975Z,3.47
2022-11-20T01:38:00.838Z,6.37
2022-11-20T01:40:29.327Z,4.43
2022-11-20T01:43:22.787Z,5.10
2022-11-20T01:46:15.544Z,3.83
2022-11-20T01:48:53.497Z,6.20
2022-11-20T01:51:32.461Z,4.60
2022-11-20T01:54:14.528Z,5.77
2022-11-20T01:56:47.001Z,3.87
2022-11-20T01:59:20.876Z,3.90
2022-11-20T02:01:49.895Z,3.73
2022-11-20T02:04:19.811Z,5.17
2022-11-20T02:06:52.852Z,4.73
2022-11-20T02:09:22.474Z,4.07
2022-11-20T02:11:51.659Z,4.47
2022-11-20T02:14:21.048Z,5.40
2022-11-20T02:16:52.426Z,4.50
2022-11-20T02:19:28.514Z,7.10
2022-11-20T02:22:06.401Z,6.10
2022-11-20T02:24:36.843Z,6.67
2022-11-20T02:27:10.312Z,5.53
2022-11-20T02:29:49.195Z,5.20
2022-11-20T02:32:22.097Z,6.13
2022-11-20T02:34:50.527Z,4.03
2022-11-20T02:37:21.854Z,4.30
2022-11-20T02:39:53.888Z,6.40
2022-11-20T02:42:22.467Z,3.20
2022-11-20T02:44:50.918Z,5.87
2022-11-20T02:47:19.711Z,5.00
2022-11-20T02:49:48.388Z,4.57
2022-11-20T02:52:16.951Z,4.83
2022-11-20T02:54:45.592Z,5.13
2022-11-20T02:57:16.303Z,4.73
2022-11-20T02:59:44.786Z,4.57
2022-11-20T03:02:13.222Z,4.23
2022-11-20T03:04:41.862Z,5.50
2022-11-20T03:07:11.219Z,6.67
2022-11-20T03:09:39.804Z,5.37
2022-11-20T03:12:09.020Z,6.40
2022-11-20T03:14:40.980Z,4.83
2022-11-20T03:17:09.449Z,3.93
2022-11-20T03:19:37.977Z,4.60
2022-11-20T03:22:06.819Z,4.33
2022-11-20T03:24:35.521Z,4.13
2022-11-20T03:27:04.182Z,5.53
2022-11-20T03:29:33.892Z,4.30
2022-11-20T03:32:03.893Z,5.20
2022-11-20T03:34:32.319Z,5.10
2022-11-20T03:37:00.876Z,5.67
2022-11-20T03:39:29.322Z,4.67
2022-11-20T03:41:57.891Z,5.03
2022-11-20T03:44:26.567Z,4.53
2022-11-20T03:46:55.129Z,6.63
2022-11-20T03:49:24.908Z,5.50
2022-11-20T03:51:53.436Z,6.00
2022-11-20T03:54:21.989Z,6.83
2022-11-20T03:56:50.969Z,4.30
2022-11-20T03:59:19.756Z,5.57
2022-11-20T04:01:49.603Z,5.37
2022-11-20T04:04:18.223Z,4.97
2022-11-20T04:06:48.129Z,5.47
2022-11-20T04:09:16.739Z,4.00
2022-11-20T04:11:45.225Z,5.20
2022-11-20T04:14:17.079Z,5.70
2022-11-20T04:16:45.907Z,4.87
2022-11-20T04:19:17.301Z,5.33
2022-11-20T04:21:48.047Z,6.13
2022-11-20T04:24:16.492Z,5.40
2022-11-20T04:26:45.283Z,7.43
2022-11-20T04:29:14.481Z,5.83
2022-11-20T04:31:42.972Z,7.70
2022-11-20T04:34:14.803Z,2.77
2022-11-20T04:36:43.416Z,4.00
2022-11-20T04:39:17.905Z,2.97
2022-11-20T04:41:46.477Z,2.63
2022-11-20T04:44:14.945Z,3.30
2022-11-20T04:46:45.987Z,3.20
2022-11-20T04:49:14.915Z,3.27
2022-11-20T04:51:43.492Z,4.53
2022-11-20T04:54:15.156Z,4.67
2022-11-20T04:56:44.533Z,4.40
2022-11-20T04:59:13.536Z,2.63
2022-11-20T05:01:42.348Z,1.80
2022-11-20T05:04:10.825Z,2.73
2022-11-20T05:06:39.466Z,3.30
2022-11-20T05:09:07.930Z,2.60
2022-11-20T05:11:37.764Z,3.77
2022-11-20T05:14:07.420Z,2.10
2022-11-20T05:16:37.748Z,5.53
2022-11-20T05:19:06.203Z,2.17
2022-11-20T05:21:35.188Z,4.60
2022-11-20T05:24:03.822Z,2.30
2022-11-20T05:26:32.733Z,3.23
2022-11-20T05:29:02.946Z,3.90
2022-11-20T05:31:31.390Z,2.67
2022-11-20T05:34:00.191Z,3.30
2022-11-20T05:36:28.707Z,3.90
2022-11-20T05:39:01.591Z,4.00
2022-11-20T05:41:30.736Z,2.90
2022-11-20T05:44:01.123Z,3.13
2022-11-20T05:46:29.929Z,3.07
2022-11-20T05:49:00.107Z,4.37
2022-11-20T05:51:29.400Z,4.37
2022-11-20T05:53:59.651Z,4.00
2022-11-20T05:56:28.097Z,5.47
2022-11-20T05:58:56.522Z,5.13
2022-11-20T06:01:28.140Z,4.83
2022-11-20T06:04:00.005Z,5.17
2022-11-20T06:06:28.530Z,7.90
2022-11-20T06:09:00.440Z,4.00
2022-11-20T06:11:29.249Z,4.03
2022-11-20T06:13:58.045Z,3.60
2022-11-20T06:16:28.112Z,6.17
2022-11-20T06:18:56.950Z,3.30
2022-11-20T06:21:25.752Z,3.37
2022-11-20T06:23:55.930Z,3.00
2022-11-20T06:26:27.524Z,4.73
2022-11-20T06:28:57.899Z,2.87
2022-11-20T06:31:28.929Z,4.68
2022-11-20T06:33:57.937Z,2.17
2022-11-20T06:36:26.441Z,4.77
2022-11-20T06:38:55.986Z,2.93
2022-11-20T06:41:25.013Z,3.57
2022-11-20T06:43:54.029Z,4.20
2022-11-20T06:46:23.757Z,3.27
2022-11-20T06:48:54.498Z,2.50
2022-11-20T06:51:23.511Z,2.93
2022-11-20T06:53:51.918Z,3.77
2022-11-20T06:56:20.703Z,4.33
2022-11-20T06:58:50.224Z,2.30
2022-11-20T07:01:18.924Z,2.87
2022-11-20T07:03:52.885Z,3.03
2022-11-20T07:06:23.926Z,3.10
2022-11-20T07:08:53.967Z,1.70
2022-11-20T07:11:22.497Z,3.27
2022-11-20T07:13:51.369Z,2.67
2022-11-20T07:16:19.884Z,2.40
2022-11-20T07:18:51.026Z,3.00
2022-11-20T07:21:19.862Z,2.27
2022-11-20T07:23:50.040Z,2.55
2022-11-20T07:26:25.362Z,3.97
2022-11-20T07:28:53.834Z,3.33
2022-11-20T07:31:22.517Z,2.63
2022-11-20T07:33:51.042Z,1.50
2022-11-20T07:36:20.426Z,3.53
2022-11-20T07:38:50.588Z,2.23
2022-11-20T07:41:19.236Z,2.03
2022-11-20T07:43:47.868Z,2.27
2022-11-20T07:46:16.497Z,3.33
2022-11-20T07:48:44.996Z,4.57
2022-11-20T07:51:14.516Z,4.03
2022-11-20T07:53:43.529Z,4.03
2022-11-20T07:56:15.152Z,3.27
2022-11-20T07:58:43.557Z,2.17
2022-11-20T08:01:12.930Z,1.97
2022-11-20T08:03:41.917Z,4.65
2022-11-20T08:06:10.910Z,2.73
2022-11-20T08:08:43.018Z,3.47
2022-11-20T08:11:30.521Z,1.93
2022-11-20T08:14:14.084Z,2.27
2022-11-20T08:16:44.308Z,1.73
2022-11-20T08:19:13.265Z,3.53
2022-11-20T08:21:43.353Z,3.70
2022-11-20T08:24:12.915Z,2.72
2022-11-20T08:26:46.666Z,3.97
2022-11-20T08:29:15.311Z,2.08
2022-11-20T08:31:45.037Z,2.83
2022-11-20T08:34:18.641Z,2.63
2022-11-20T08:36:47.830Z,2.25
2022-11-20T08:39:17.075Z,2.28
2022-11-20T08:41:53.242Z,3.55
2022-11-20T08:44:22.774Z,4.45
2022-11-20T08:46:53.289Z,1.90
2022-11-20T08:49:22.819Z,2.65
2022-11-20T08:51:54.594Z,2.10
2022-11-20T08:54:23.645Z,2.22
2022-11-20T08:56:54.227Z,3.72
2022-11-20T08:59:43.949Z,4.53
2022-11-20T09:02:11.560Z,3.50
2022-11-20T09:04:40.085Z,4.60
2022-11-20T09:07:08.731Z,4.28
2022-11-20T09:09:37.287Z,2.28
2022-11-20T09:12:07.458Z,4.07
2022-11-20T09:14:36.082Z,3.42
2022-11-20T09:17:04.810Z,3.05
2022-11-20T09:19:35.859Z,3.70
2022-11-20T09:22:05.216Z,2.78
2022-11-20T09:24:33.894Z,2.63
2022-11-20T09:27:07.051Z,5.03
2022-11-20T09:29:35.658Z,2.92
2022-11-20T09:32:04.440Z,3.40
2022-11-20T09:34:34.099Z,3.53
2022-11-20T09:37:06.188Z,2.85
2022-11-20T09:39:39.921Z,3.90
2022-11-20T09:42:37.503Z,2.63
2022-11-20T09:45:32.864Z,3.65
2022-11-20T09:48:39.067Z,4.35
2022-11-20T09:51:21.265Z,2.85
2022-11-20T09:54:08.719Z,1.92
2022-11-20T09:56:41.519Z,1.65
2022-11-20T09:59:30.674Z,3.38
2022-11-20T10:02:01.778Z,1.20
2022-11-20T10:04:36.848Z,2.13
2022-11-20T10:07:31.743Z,3.00
2022-11-20T10:10:01.696Z,2.42
2022-11-20T10:12:51.928Z,2.15
2022-11-20T10:15:36.003Z,1.90
2022-11-20T10:18:24.426Z,4.10
2022-11-20T10:21:11.908Z,6.20
2022-11-20T10:24:19.611Z,3.15
2022-11-20T10:27:03.742Z,1.73
2022-11-20T10:29:40.541Z,1.38
2022-11-20T10:32:18.777Z,3.17
2022-11-20T10:34:54.702Z,2.58
2022-11-20T10:37:29.160Z,2.72
2022-11-20T10:40:04.388Z,5.65
2022-11-20T10:42:40.284Z,2.95
2022-11-20T10:45:22.321Z,2.38
2022-11-20T10:47:52.461Z,3.95
2022-11-20T10:50:23.703Z,4.18
2022-11-20T10:53:06.820Z,4.25
2022-11-20T10:55:43.076Z,2.90
2022-11-20T10:58:16.544Z,2.60
2022-11-20T11:00:45.660Z,3.28
2022-11-20T11:03:26.416Z,1.35
2022-11-20T11:06:02.971Z,1.10
2022-11-20T11:08:37.365Z,3.50
2022-11-20T11:11:21.221Z,3.72
2022-11-20T11:13:49.742Z,1.77
2022-11-20T11:16:27.252Z,5.68
2022-11-20T11:19:08.156Z,5.82
2022-11-20T11:21:42.407Z,4.95
2022-11-20T11:24:41.811Z,2.85
2022-11-20T11:27:18.820Z,2.83
2022-11-20T11:29:48.198Z,2.17
2022-11-20T11:32:21.645Z,2.83
2022-11-20T11:35:03.754Z,2.85
2022-11-20T11:37:37.315Z,3.05
2022-11-20T11:40:28.056Z,4.35
2022-11-20T11:43:01.361Z,3.83
2022-11-20T11:45:29.539Z,1.23
2022-11-20T11:48:02.599Z,7.35
2022-11-20T11:50:32.611Z,2.65
2022-11-20T11:53:11.700Z,2.70
2022-11-20T11:55:45.550Z,2.05
2022-11-20T11:58:43.935Z,2.13
2022-11-20T12:01:28.863Z,3.15
2022-11-20T12:04:08.034Z,5.20
2022-11-20T12:06:41.697Z,13.23
2022-11-20T12:09:13.759Z,4.13
2022-11-20T12:11:49.912Z,1.65
2022-11-20T12:14:27.309Z,3.70
2022-11-20T12:16:58.598Z,4.95
2022-11-20T12:19:29.470Z,6.80
2022-11-20T12:22:06.711Z,10.23
2022-11-20T12:24:54.890Z,8.93
2022-11-20T12:27:59.732Z,7.60
2022-11-20T12:30:28.499Z,1.95
2022-11-20T12:33:42.964Z,2.60
2022-11-20T12:36:27.856Z,4.10
2022-11-20T12:39:24.690Z,2.38
2022-11-20T12:42:38.775Z,3.33
2022-11-20T12:45:51.650Z,2.50
2022-11-20T12:48:50.619Z,2.45
2022-11-20T12:51:54.275Z,4.28
2022-11-20T12:54:51.899Z,3.22
2022-11-20T12:57:27.333Z,2.92
2022-11-20T13:00:21.589Z,2.25
2022-11-20T13:03:20.157Z,4.28
2022-11-20T13:06:03.233Z,5.18
2022-11-20T13:08:36.745Z,3.83
2022-11-20T13:11:16.440Z,2.25
2022-11-20T13:13:58.952Z,2.63
2022-11-20T13:16:35.588Z,2.88
2022-11-20T13:19:06.074Z,2.95
2022-11-20T13:21:40.698Z,3.17
2022-11-20T13:24:22.250Z,2.92
2022-11-20T13:27:07.034Z,2.80
2022-11-20T13:29:37.063Z,2.88
2022-11-20T13:32:08.567Z,3.42
2022-11-20T13:34:38.058Z,3.17
2022-11-20T13:37:06.830Z,2.45
2022-11-20T13:39:37.810Z,2.80
2022-11-20T13:42:28.939Z,1.58
2022-11-20T13:45:03.408Z,2.90
2022-11-20T13:47:32.177Z,2.45
2022-11-20T13:50:01.611Z,5.18
2022-11-20T13:52:46.604Z,2.05
2022-11-20T13:55:24.082Z,3.05
2022-11-20T13:58:10.019Z,3.15
2022-11-20T14:00:49.467Z,1.92
2022-11-20T14:03:43.984Z,2.42
2022-11-20T14:06:21.970Z,2.92
2022-11-20T14:08:52.612Z,1.33
2022-11-20T14:11:25.260Z,1.95
2022-11-20T14:14:06.018Z,5.72
2022-11-20T14:16:38.979Z,2.95
2022-11-20T14:19:29.904Z,1.25
2022-11-20T14:22:12.685Z,2.83
2022-11-20T14:24:41.145Z,4.03
2022-11-20T14:27:16.997Z,2.97
2022-11-20T14:29:49.323Z,1.60
2022-11-20T14:32:20.189Z,2.13
2022-11-20T14:34:52.258Z,2.92
2022-11-20T14:37:25.874Z,2.15
2022-11-20T14:39:56.901Z,4.03
2022-11-20T14:42:27.927Z,4.40
2022-11-20T14:45:00.601Z,1.48
2022-11-20T14:47:32.361Z,3.85
2022-11-20T14:50:08.667Z,3.92
2022-11-20T14:52:38.589Z,3.38
2022-11-20T14:55:07.994Z,2.20
2022-11-20T14:57:38.595Z,2.47
2022-11-20T15:00:21.643Z,14.30
2022-11-20T15:02:52.014Z,3.83
2022-11-20T15:05:23.733Z,2.72
2022-11-20T15:08:07.189Z,4.82
2022-11-20T15:10:38.116Z,5.07
2022-11-20T15:13:13.628Z,8.68
2022-11-20T15:15:49.250Z,3.13
2022-11-20T15:18:20.537Z,1.98
2022-11-20T15:20:49.519Z,2.30
2022-11-20T15:23:20.505Z,2.05
2022-11-20T15:25:50.724Z,3.75
2022-11-20T15:28:23.308Z,3.08
2022-11-20T15:30:53.866Z,3.08
2022-11-20T15:33:22.322Z,4.55
2022-11-20T15:35:50.851Z,4.22
2022-11-20T15:38:19.406Z,6.40
2022-11-20T15:40:48.171Z,6.38
2022-11-20T15:43:17.148Z,4.95
2022-11-20T15:45:48.851Z,2.22
2022-11-20T15:48:22.558Z,6.85
2022-11-20T15:50:56.828Z,16.55
2022-11-20T15:53:25.761Z,11.70
2022-11-20T15:55:54.333Z,9.52
2022-11-20T15:58:23.961Z,2.60
2022-11-20T16:00:54.046Z,2.95
2022-11-20T16:03:25.007Z,4.15
2022-11-20T16:05:53.566Z,4.35
2022-11-20T16:08:22.019Z,4.07
2022-11-20T16:10:50.595Z,1.90
2022-11-20T16:13:37.567Z,3.15
2022-11-20T16:16:11.013Z,1.92
2022-11-20T16:18:40.857Z,5.75
2022-11-20T16:21:14.643Z,6.05
2022-11-20T16:23:44.107Z,2.78
2022-11-20T16:26:14.773Z,3.65
2022-11-20T16:28:43.280Z,3.75
2022-11-20T16:31:13.609Z,3.83
2022-11-20T16:33:43.940Z,2.80
2022-11-20T16:36:15.259Z,3.65
2022-11-20T16:38:44.411Z,3.80
2022-11-20T16:41:15.373Z,1.48
2022-11-20T16:43:49.812Z,3.72
2022-11-20T16:46:20.314Z,4.28
2022-11-20T16:48:56.768Z,3.35
2022-11-20T16:51:27.491Z,3.90
2022-11-20T16:53:57.246Z,2.35
2022-11-20T16:56:28.929Z,3.85
2022-11-20T16:58:59.898Z,3.80
2022-11-20T17:01:29.872Z,5.10
2022-11-20T17:04:03.524Z,2.83
2022-11-20T17:06:34.607Z,8.00
2022-11-20T17:09:04.980Z,4.00
2022-11-20T17:11:33.893Z,12.32
2022-11-20T17:14:03.937Z,4.88
2022-11-20T17:16:32.764Z,5.03
2022-11-20T17:19:03.879Z,5.50
2022-11-20T17:21:33.064Z,5.70
2022-11-20T17:24:03.726Z,5.50
2022-11-20T17:26:33.011Z,5.00
2022-11-20T17:29:03.942Z,5.83
2022-11-20T17:31:34.473Z,4.43
2022-11-20T17:34:04.806Z,6.15
2022-11-20T17:36:34.743Z,6.33
2022-11-20T17:39:03.392Z,10.43
2022-11-20T17:41:32.100Z,11.67
2022-11-20T17:44:03.009Z,10.67
2022-11-20T17:46:34.068Z,11.33
2022-11-20T17:49:05.748Z,11.23
2022-11-20T17:51:37.193Z,12.73
2022-11-20T17:54:08.510Z,11.52
2022-11-20T17:56:54.935Z,10.50
2022-11-20T17:59:24.053Z,8.50
2022-11-20T18:01:55.115Z,9.53
2022-11-20T18:04:26.395Z,10.33
2022-11-20T18:06:55.025Z,12.83
2022-11-20T18:09:23.556Z,11.40
2022-11-20T18:11:52.112Z,13.50
2022-11-20T18:14:34.658Z,11.77
2022-11-20T18:17:06.895Z,10.70
2022-11-20T18:19:51.335Z,10.43
2022-11-20T18:22:24.026Z,12.37
2022-11-20T18:24:55.110Z,10.77
2022-11-20T18:27:24.316Z,9.47
2022-11-20T18:29:52.857Z,12.97
2022-11-20T18:32:22.754Z,12.27
2022-11-20T18:34:54.460Z,11.70
2022-11-20T18:37:24.819Z,10.63
2022-11-20T18:39:53.704Z,10.13
2022-11-20T18:42:39.901Z,8.53
2022-11-20T18:45:09.784Z,15.07
2022-11-20T18:47:40.152Z,9.77
2022-11-20T18:50:11.522Z,9.63
2022-11-20T18:52:44.676Z,6.73
2022-11-20T18:55:14.309Z,7.00
2022-11-20T18:57:42.941Z,5.97
2022-11-20T19:00:13.161Z,6.27
2022-11-20T19:02:43.655Z,6.93
2022-11-20T19:05:16.022Z,6.13
2022-11-20T19:07:44.816Z,5.87
2022-11-20T19:10:13.647Z,8.27
2022-11-20T19:12:42.944Z,7.77
2022-11-20T19:15:13.793Z,8.47
2022-11-20T19:17:42.247Z,7.50
2022-11-20T19:20:13.668Z,7.63
2022-11-20T19:22:42.235Z,6.03
2022-11-20T19:25:11.103Z,6.50
2022-11-20T19:27:39.526Z,6.27
2022-11-20T19:30:09.709Z,9.18
2022-11-20T19:32:38.294Z,4.07
2022-11-20T19:35:07.928Z,3.58
2022-11-20T19:37:38.809Z,6.10
2022-11-20T19:40:08.893Z,6.90
2022-11-20T19:42:39.557Z,3.07
2022-11-20T19:45:11.435Z,3.63
2022-11-20T19:50:29.018Z,5.17
2022-11-20T19:53:00.007Z,1.60
2022-11-20T19:55:28.654Z,1.67
2022-11-20T19:57:58.736Z,2.37
2022-11-20T20:00:32.333Z,1.20
2022-11-20T20:03:01.585Z,1.50
2022-11-20T20:05:30.469Z,3.17
2022-11-20T20:08:01.197Z,2.60
2022-11-20T20:10:29.943Z,2.03
2022-11-20T20:12:58.781Z,1.93
2022-11-20T20:15:27.960Z,2.70
2022-11-20T20:17:57.886Z,1.50
2022-11-20T20:20:27.742Z,5.37
2022-11-20T20:22:57.834Z,9.30
2022-11-20T20:25:29.701Z,2.70
2022-11-20T20:27:58.693Z,2.37
2022-11-20T20:30:28.403Z,2.90
2022-11-20T20:32:57.304Z,3.23
2022-11-20T20:35:26.840Z,2.43
2022-11-20T20:37:55.624Z,3.30
2022-11-20T20:40:24.392Z,3.53
2022-11-20T20:42:54.866Z,2.93
2022-11-20T20:45:23.814Z,2.97
2022-11-20T20:47:53.042Z,2.87
2022-11-20T20:50:22.967Z,2.10
2022-11-20T20:52:51.623Z,1.97
2022-11-20T20:55:20.340Z,1.10
2022-11-20T20:57:49.162Z,1.53
2022-11-20T21:00:32.138Z,1.33
2022-11-20T21:03:00.867Z,3.00
2022-11-20T21:05:32.441Z,1.30
2022-11-20T21:08:18.311Z,1.33
2022-11-20T21:10:46.945Z,2.33
2022-11-20T21:13:16.491Z,1.43
2022-11-20T21:15:49.813Z,0.87
2022-11-20T21:18:21.580Z,2.03
2022-11-20T21:21:09.079Z,1.53
2022-11-20T21:23:38.211Z,0.40
2022-11-20T21:26:09.328Z,1.23
2022-11-20T21:28:42.089Z,0.70
2022-11-20T21:31:15.723Z,2.20
2022-11-20T21:33:47.168Z,0.77
2022-11-20T21:36:18.368Z,7.67
2022-11-20T21:38:48.292Z,5.97
2022-11-20T21:41:26.653Z,1.90
2022-11-20T21:44:29.739Z,1.10
2022-11-20T21:46:47.666Z,1.00
2022-11-20T21:49:18.216Z,1.97
2022-11-20T21:51:47.217Z,1.27
2022-11-20T21:54:17.482Z,1.50
2022-11-20T21:56:46.028Z,1.53
2022-11-20T21:59:15.011Z,1.60
2022-11-20T22:01:45.358Z,1.37
2022-11-20T22:04:15.742Z,0.90
2022-11-20T22:06:45.178Z,1.03
2022-11-20T22:09:20.388Z,1.53
2022-11-20T22:11:49.211Z,0.73
2022-11-20T22:14:24.742Z,1.17
2022-11-20T22:16:55.395Z,0.93
2022-11-20T22:19:25.314Z,0.83
2022-11-20T22:21:54.042Z,2.93
2022-11-20T22:24:24.277Z,1.70
2022-11-20T22:26:53.188Z,1.27
2022-11-20T22:29:22.765Z,1.43
2022-11-20T22:31:54.729Z,0.97
2022-11-20T22:34:24.876Z,1.10
2022-11-20T22:36:53.896Z,1.00
2022-11-20T22:39:23.112Z,0.60
2022-11-20T22:41:51.858Z,1.33
2022-11-20T22:44:20.906Z,0.67
2022-11-20T22:46:49.788Z,0.80
2022-11-20T22:49:20.759Z,3.63
2022-11-20T22:51:51.808Z,0.97
2022-11-20T22:54:20.489Z,1.33
2022-11-20T22:56:50.219Z,10.03
2022-11-20T22:59:19.072Z,6.17
2022-11-20T23:01:49.809Z,2.27
2022-11-20T23:04:22.921Z,2.13
2022-11-20T23:06:53.598Z,0.73
2022-11-20T23:09:22.667Z,1.43
2022-11-20T23:11:51.688Z,2.47
2022-11-20T23:14:27.518Z,1.90
2022-11-20T23:16:56.390Z,1.00
2022-11-20T23:19:27.905Z,2.33
2022-11-20T23:21:58.366Z,2.13
2022-11-20T23:24:27.099Z,1.43
2022-11-20T23:26:56.763Z,2.20
2022-11-20T23:29:25.352Z,1.23
2022-11-20T23:31:56.787Z,1.70
2022-11-20T23:34:27.099Z,2.43
2022-11-20T23:36:56.210Z,1.00
2022-11-20T23:39:27.323Z,1.37
2022-11-20T23:41:56.006Z,0.83
2022-11-20T23:44:28.847Z,1.73
2022-11-20T23:47:12.578Z,1.90
2022-11-20T23:49:51.159Z,1.53
2022-11-20T23:52:26.980Z,1.87
2022-11-20T23:54:55.968Z,0.80
2022-11-20T23:57:27.056Z,2.37
2022-11-20T23:59:55.659Z,2.03
